sensor_id;sensor_type;location;lat;lon;timestamp;pressure;altitude;pressure_sealevel;temperature;humidity
28630;BME280;15817;42.130;24.762;2023-10-19T00:00:55;100089.53;;;12.15;100.00
28630;BME280;15817;42.130;24.762;2023-10-19T00:03:30;100094.88;;;12.16;100.00
28630;BME280;15817;42.130;24.762;2023-10-19T00:05:59;100097.53;;;12.18;100.00
28630;BME280;15817;42.130;24.762;2023-10-19T00:08:33;100093.16;;;12.11;100.00
28630;BME280;15817;42.130;24.762;2023-10-19T00:11:12;100090.44;;;12.14;100.00
28630;BME280;15817;42.130;24.762;2023-10-19T00:13:51;100082.50;;;12.09;100.00
28630;BME280;15817;42.130;24.762;2023-10-19T00:16:25;100094.88;;;12.15;100.00
28630;BME280;15817;42.130;24.762;2023-10-19T00:19:05;100068.31;;;12.03;100.00
28630;BME280;15817;42.130;24.762;2023-10-19T00:21:44;100072.75;;;12.04;100.00
28630;BME280;15817;42.130;24.762;2023-10-19T00:24:21;100074.53;;;12.03;100.00
28630;BME280;15817;42.130;24.762;2023-10-19T00:26:53;100067.44;;;12.01;100.00
28630;BME280;15817;42.130;24.762;2023-10-19T00:29:22;100056.88;;;11.93;100.00
28630;BME280;15817;42.130;24.762;2023-10-19T00:31:59;100065.72;;;11.95;100.00
28630;BME280;15817;42.130;24.762;2023-10-19T00:34:31;100046.22;;;11.90;100.00
28630;BME280;15817;42.130;24.762;2023-10-19T00:37:17;100050.63;;;11.95;100.00
28630;BME280;15817;42.130;24.762;2023-10-19T00:39:48;100032.94;;;11.85;100.00
28630;BME280;15817;42.130;24.762;2023-10-19T00:42:23;100052.41;;;11.95;100.00
28630;BME280;15817;42.130;24.762;2023-10-19T00:45:07;100051.53;;;11.93;100.00
28630;BME280;15817;42.130;24.762;2023-10-19T00:47:51;100044.44;;;11.89;100.00
28630;BME280;15817;42.130;24.762;2023-10-19T00:50:28;100035.63;;;11.85;100.00
28630;BME280;15817;42.130;24.762;2023-10-19T00:52:58;100031.19;;;11.81;100.00
28630;BME280;15817;42.130;24.762;2023-10-19T00:55:27;100039.25;;;11.75;100.00
28630;BME280;15817;42.130;24.762;2023-10-19T00:57:59;100036.69;;;11.55;100.00
28630;BME280;15817;42.130;24.762;2023-10-19T01:00:38;100028.69;;;11.54;100.00
28630;BME280;15817;42.130;24.762;2023-10-19T01:03:15;100027.88;;;11.50;100.00
28630;BME280;15817;42.130;24.762;2023-10-19T01:05:47;100024.31;;;11.51;100.00
28630;BME280;15817;42.130;24.762;2023-10-19T01:08:19;100037.53;;;11.65;100.00
28630;BME280;15817;42.130;24.762;2023-10-19T01:10:51;100026.00;;;11.61;100.00
28630;BME280;15817;42.130;24.762;2023-10-19T01:13:18;100025.06;;;11.66;100.00
28630;BME280;15817;42.130;24.762;2023-10-19T01:15:57;100014.47;;;11.59;100.00
28630;BME280;15817;42.130;24.762;2023-10-19T01:18:37;100014.47;;;11.59;100.00
28630;BME280;15817;42.130;24.762;2023-10-19T01:21:07;100024.25;;;11.59;100.00
28630;BME280;15817;42.130;24.762;2023-10-19T01:23:33;99997.69;;;11.48;100.00
28630;BME280;15817;42.130;24.762;2023-10-19T01:26:01;100014.47;;;11.56;100.00
28630;BME280;15817;42.130;24.762;2023-10-19T01:28:37;100013.59;;;11.59;100.00
28630;BME280;15817;42.130;24.762;2023-10-19T01:31:26;100004.69;;;11.61;100.00
28630;BME280;15817;42.130;24.762;2023-10-19T01:34:05;99994.94;;;11.56;100.00
28630;BME280;15817;42.130;24.762;2023-10-19T01:36:37;99998.47;;;11.59;100.00
28630;BME280;15817;42.130;24.762;2023-10-19T01:39:11;100003.75;;;11.66;100.00
28630;BME280;15817;42.130;24.762;2023-10-19T01:41:41;100003.81;;;11.61;100.00
28630;BME280;15817;42.130;24.762;2023-10-19T01:44:13;99998.47;;;11.61;100.00
28630;BME280;15817;42.130;24.762;2023-10-19T01:46:42;100004.69;;;11.61;100.00
28630;BME280;15817;42.130;24.762;2023-10-19T01:49:17;100000.25;;;11.64;100.00
28630;BME280;15817;42.130;24.762;2023-10-19T01:52:01;100012.59;;;11.69;100.00
28630;BME280;15817;42.130;24.762;2023-10-19T01:54:36;100007.38;;;11.58;100.00
28630;BME280;15817;42.130;24.762;2023-10-19T01:57:03;100011.03;;;11.44;100.00
28630;BME280;15817;42.130;24.762;2023-10-19T01:59:33;100019.94;;;11.41;100.00
28630;BME280;15817;42.130;24.762;2023-10-19T02:02:00;100021.69;;;11.42;100.00
28630;BME280;15817;42.130;24.762;2023-10-19T02:04:27;100030.50;;;11.53;100.00
28630;BME280;15817;42.130;24.762;2023-10-19T02:06:53;100028.78;;;11.43;100.00
28630;BME280;15817;42.130;24.762;2023-10-19T02:09:22;100019.97;;;11.35;100.00
28630;BME280;15817;42.130;24.762;2023-10-19T02:11:53;100018.19;;;11.39;100.00
28630;BME280;15817;42.130;24.762;2023-10-19T02:14:21;100006.59;;;11.43;100.00
28630;BME280;15817;42.130;24.762;2023-10-19T02:16:59;100003.91;;;11.44;100.00
28630;BME280;15817;42.130;24.762;2023-10-19T02:19:29;100015.44;;;11.46;100.00
28630;BME280;15817;42.130;24.762;2023-10-19T02:22:03;100019.06;;;11.39;100.00
28630;BME280;15817;42.130;24.762;2023-10-19T02:24:56;100011.16;;;11.24;100.00
28630;BME280;15817;42.130;24.762;2023-10-19T02:27:25;100009.44;;;11.17;100.00
28630;BME280;15817;42.130;24.762;2023-10-19T02:30:00;100020.03;;;11.23;100.00
28630;BME280;15817;42.130;24.762;2023-10-19T02:32:28;100030.69;;;11.26;100.00
28630;BME280;15817;42.130;24.762;2023-10-19T02:35:06;100021.00;;;11.14;100.00
28630;BME280;15817;42.130;24.762;2023-10-19T02:37:35;100025.44;;;11.14;100.00
28630;BME280;15817;42.130;24.762;2023-10-19T02:40:04;100026.31;;;11.19;100.00
28630;BME280;15817;42.130;24.762;2023-10-19T02:42:42;100024.47;;;11.27;100.00
28630;BME280;15817;42.130;24.762;2023-10-19T02:45:15;100033.28;;;11.38;100.00
28630;BME280;15817;42.130;24.762;2023-10-19T02:48:09;100033.22;;;11.43;100.00
28630;BME280;15817;42.130;24.762;2023-10-19T02:50:52;100033.28;;;11.37;100.00
28630;BME280;15817;42.130;24.762;2023-10-19T02:53:44;100042.09;;;11.45;100.00
28630;BME280;15817;42.130;24.762;2023-10-19T02:56:19;100033.19;;;11.49;100.00
28630;BME280;15817;42.130;24.762;2023-10-19T02:59:09;100021.66;;;11.51;100.00
28630;BME280;15817;42.130;24.762;2023-10-19T03:01:38;100028.75;;;11.49;100.00
28630;BME280;15817;42.130;24.762;2023-10-19T03:04:15;100026.19;;;11.37;100.00
28630;BME280;15817;42.130;24.762;2023-10-19T03:06:54;100028.84;;;11.31;100.00
28630;BME280;15817;42.130;24.762;2023-10-19T03:09:21;100027.16;;;11.22;100.00
28630;BME280;15817;42.130;24.762;2023-10-19T03:11:59;100029.81;;;11.22;100.00
28630;BME280;15817;42.130;24.762;2023-10-19T03:14:36;100026.25;;;11.22;100.00
28630;BME280;15817;42.130;24.762;2023-10-19T03:17:05;100029.78;;;11.30;100.00
28630;BME280;15817;42.130;24.762;2023-10-19T03:19:45;100035.88;;;11.43;100.00
28630;BME280;15817;42.130;24.762;2023-10-19T03:22:20;100033.19;;;11.47;100.00
28630;BME280;15817;42.130;24.762;2023-10-19T03:27:59;100039.34;;;11.57;100.00
28630;BME280;15817;42.130;24.762;2023-10-19T03:31:02;100053.53;;;11.62;100.00
28630;BME280;15817;42.130;24.762;2023-10-19T03:33:35;100034.00;;;11.58;100.00
28630;BME280;15817;42.130;24.762;2023-10-19T03:36:27;100026.00;;;11.60;100.00
28630;BME280;15817;42.130;24.762;2023-10-19T03:38:58;100034.88;;;11.64;100.00
28630;BME280;15817;42.130;24.762;2023-10-19T03:41:44;100025.06;;;11.66;100.00
28630;BME280;15817;42.130;24.762;2023-10-19T03:44:10;100027.72;;;11.67;100.00
28630;BME280;15817;42.130;24.762;2023-10-19T03:47:04;100029.50;;;11.67;100.00
28630;BME280;15817;42.130;24.762;2023-10-19T03:49:48;100019.78;;;11.64;100.00
28630;BME280;15817;42.130;24.762;2023-10-19T03:52:17;100025.09;;;11.64;100.00
28630;BME280;15817;42.130;24.762;2023-10-19T03:54:53;100015.34;;;11.63;100.00
28630;BME280;15817;42.130;24.762;2023-10-19T04:00:18;100007.38;;;11.60;100.00
28630;BME280;15817;42.130;24.762;2023-10-19T04:03:05;100010.91;;;11.59;100.00
28630;BME280;15817;42.130;24.762;2023-10-19T04:05:40;100022.41;;;11.66;100.00
28630;BME280;15817;42.130;24.762;2023-10-19T04:08:12;100010.03;;;11.60;100.00
28630;BME280;15817;42.130;24.762;2023-10-19T04:10:48;100020.66;;;11.63;100.00
28630;BME280;15817;42.130;24.762;2023-10-19T04:13:44;100006.50;;;11.56;100.00
28630;BME280;15817;42.130;24.762;2023-10-19T04:16:19;100021.56;;;11.59;100.00
28630;BME280;15817;42.130;24.762;2023-10-19T04:18:56;100023.34;;;11.61;100.00
28630;BME280;15817;42.130;24.762;2023-10-19T04:21:32;100011.81;;;11.58;100.00
28630;BME280;15817;42.130;24.762;2023-10-19T04:24:31;100026.88;;;11.64;100.00
28630;BME280;15817;42.130;24.762;2023-10-19T04:27:01;100031.31;;;11.65;100.00
28630;BME280;15817;42.130;24.762;2023-10-19T04:29:42;100017.13;;;11.58;100.00
28630;BME280;15817;42.130;24.762;2023-10-19T04:32:22;100021.56;;;11.59;100.00
28630;BME280;15817;42.130;24.762;2023-10-19T04:35:24;100014.53;;;11.52;100.00
28630;BME280;15817;42.130;24.762;2023-10-19T04:37:58;100015.44;;;11.51;100.00
28630;BME280;15817;42.130;24.762;2023-10-19T04:40:31;100014.47;;;11.56;100.00
28630;BME280;15817;42.130;24.762;2023-10-19T04:43:03;100013.66;;;11.48;100.00
28630;BME280;15817;42.130;24.762;2023-10-19T04:48:37;100009.25;;;11.43;100.00
28630;BME280;15817;42.130;24.762;2023-10-19T04:51:15;100019.06;;;11.41;100.00
28630;BME280;15817;42.130;24.762;2023-10-19T04:54:01;100015.53;;;11.36;100.00
28630;BME280;15817;42.130;24.762;2023-10-19T04:56:47;100026.19;;;11.34;100.00
28630;BME280;15817;42.130;24.762;2023-10-19T04:59:42;100027.97;;;11.35;100.00
28630;BME280;15817;42.130;24.762;2023-10-19T05:02:52;100029.72;;;11.35;100.00
28630;BME280;15817;42.130;24.762;2023-10-19T05:05:41;100032.38;;;11.39;100.00
28630;BME280;15817;42.130;24.762;2023-10-19T05:08:32;100037.66;;;11.45;100.00
28630;BME280;15817;42.130;24.762;2023-10-19T05:11:13;100031.50;;;11.36;100.00
28630;BME280;15817;42.130;24.762;2023-10-19T05:13:49;100030.63;;;11.35;100.00
28630;BME280;15817;42.130;24.762;2023-10-19T05:16:32;100032.41;;;11.33;100.00
28630;BME280;15817;42.130;24.762;2023-10-19T05:19:38;100037.72;;;11.33;100.00
28630;BME280;15817;42.130;24.762;2023-10-19T05:22:11;100032.44;;;11.30;100.00
28630;BME280;15817;42.130;24.762;2023-10-19T05:25:09;100031.53;;;11.31;100.00
28630;BME280;15817;42.130;24.762;2023-10-19T05:27:38;100046.59;;;11.40;100.00
28630;BME280;15817;42.130;24.762;2023-10-19T05:30:10;100035.94;;;11.34;100.00
28630;BME280;15817;42.130;24.762;2023-10-19T05:32:37;100043.94;;;11.35;100.00
28630;BME280;15817;42.130;24.762;2023-10-19T05:37:56;100033.28;;;11.32;100.00
28630;BME280;15817;42.130;24.762;2023-10-19T05:40:31;100050.97;;;11.42;100.00
28630;BME280;15817;42.130;24.762;2023-10-19T05:43:05;100039.50;;;11.33;100.00
28630;BME280;15817;42.130;24.762;2023-10-19T05:45:39;100040.44;;;11.29;100.00
28630;BME280;15817;42.130;24.762;2023-10-19T05:48:06;100042.22;;;11.30;100.00
28630;BME280;15817;42.130;24.762;2023-10-19T05:50:37;100033.34;;;11.29;100.00
28630;BME280;15817;42.130;24.762;2023-10-19T05:53:12;100035.13;;;11.30;100.00
28630;BME280;15817;42.130;24.762;2023-10-19T05:55:44;100039.50;;;11.33;100.00
28630;BME280;15817;42.130;24.762;2023-10-19T05:58:37;100046.59;;;11.35;100.00
28630;BME280;15817;42.130;24.762;2023-10-19T06:04:58;100038.59;;;11.35;100.00
28630;BME280;15817;42.130;24.762;2023-10-19T06:07:25;100035.94;;;11.40;100.00
28630;BME280;15817;42.130;24.762;2023-10-19T06:09:51;100038.53;;;11.44;100.00
28630;BME280;15817;42.130;24.762;2023-10-19T06:12:19;100041.22;;;11.43;100.00
28630;BME280;15817;42.130;24.762;2023-10-19T06:14:56;100049.25;;;11.41;100.00
28630;BME280;15817;42.130;24.762;2023-10-19T06:17:32;100050.97;;;11.45;100.00
28630;BME280;15817;42.130;24.762;2023-10-19T06:19:58;100047.41;;;11.46;100.00
28630;BME280;15817;42.130;24.762;2023-10-19T06:22:27;100055.41;;;11.46;100.00
28630;BME280;15817;42.130;24.762;2023-10-19T06:24:59;100041.13;;;11.55;100.00
28630;BME280;15817;42.130;24.762;2023-10-19T06:27:30;100046.34;;;11.70;100.00
28630;BME280;15817;42.130;24.762;2023-10-19T06:29:57;100046.34;;;11.75;100.00
28630;BME280;15817;42.130;24.762;2023-10-19T06:32:25;100052.50;;;11.84;100.00
28630;BME280;15817;42.130;24.762;2023-10-19T06:34:52;100041.81;;;11.87;100.00
28630;BME280;15817;42.130;24.762;2023-10-19T06:37:32;100051.50;;;11.99;100.00
28630;BME280;15817;42.130;24.762;2023-10-19T06:40:01;100049.72;;;11.98;100.00
28630;BME280;15817;42.130;24.762;2023-10-19T06:42:27;100047.88;;;12.02;100.00
28630;BME280;15817;42.130;24.762;2023-10-19T06:45:02;100049.72;;;12.00;100.00
28630;BME280;15817;42.130;24.762;2023-10-19T06:47:30;100051.53;;;11.91;100.00
28630;BME280;15817;42.130;24.762;2023-10-19T06:49:57;100044.44;;;11.90;100.00
28630;BME280;15817;42.130;24.762;2023-10-19T06:52:22;100050.72;;;11.88;100.00
28630;BME280;15817;42.130;24.762;2023-10-19T06:54:59;100040.09;;;11.80;100.00
28630;BME280;15817;42.130;24.762;2023-10-19T06:57:29;100054.25;;;11.87;100.00
28630;BME280;15817;42.130;24.762;2023-10-19T07:00:01;100051.56;;;11.88;100.00
28630;BME280;15817;42.130;24.762;2023-10-19T07:02:45;100042.72;;;11.85;100.00
28630;BME280;15817;42.130;24.762;2023-10-19T07:05:32;100048.88;;;11.90;100.00
28630;BME280;15817;42.130;24.762;2023-10-19T07:08:06;100050.63;;;11.95;100.00
28630;BME280;15817;42.130;24.762;2023-10-19T07:10:34;100054.19;;;11.96;100.00
28630;BME280;15817;42.130;24.762;2023-10-19T07:13:08;100049.72;;;11.96;100.00
28630;BME280;15817;42.130;24.762;2023-10-19T07:16:01;100055.88;;;12.06;100.00
28630;BME280;15817;42.130;24.762;2023-10-19T07:19:17;100041.66;;;12.04;100.00
28630;BME280;15817;42.130;24.762;2023-10-19T07:21:55;100035.41;;;12.07;100.00
28630;BME280;15817;42.130;24.762;2023-10-19T07:24:35;100037.19;;;12.08;100.00
28630;BME280;15817;42.130;24.762;2023-10-19T07:27:14;100034.50;;;12.09;100.00
28630;BME280;15817;42.130;24.762;2023-10-19T07:32:56;100026.41;;;12.21;100.00
28630;BME280;15817;42.130;24.762;2023-10-19T07:36:04;100027.25;;;12.23;100.00
28630;BME280;15817;42.130;24.762;2023-10-19T07:38:42;100028.97;;;12.30;100.00
28630;BME280;15817;42.130;24.762;2023-10-19T07:41:15;100023.56;;;12.35;100.00
28630;BME280;15817;42.130;24.762;2023-10-19T07:43:43;100019.16;;;12.32;100.00
28630;BME280;15817;42.130;24.762;2023-10-19T07:46:25;100029.63;;;12.49;100.00
28630;BME280;15817;42.130;24.762;2023-10-19T07:49:14;100026.94;;;12.52;100.00
28630;BME280;15817;42.130;24.762;2023-10-19T07:52:37;100041.06;;;12.62;100.00
28630;BME280;15817;42.130;24.762;2023-10-19T07:55:41;100033.81;;;12.72;100.00
28630;BME280;15817;42.130;24.762;2023-10-19T07:58:10;100019.56;;;12.74;100.00
28630;BME280;15817;42.130;24.762;2023-10-19T08:01:09;100012.41;;;12.78;100.00
28630;BME280;15817;42.130;24.762;2023-10-19T08:04:21;100006.97;;;12.84;100.00
28630;BME280;15817;42.130;24.762;2023-10-19T08:07:07;100014.94;;;12.90;100.00
28630;BME280;15817;42.130;24.762;2023-10-19T08:10:04;100010.38;;;12.98;100.00
28630;BME280;15817;42.130;24.762;2023-10-19T08:17:14;100008.31;;;13.18;100.00
28630;BME280;15817;42.130;24.762;2023-10-19T08:26:39;100006.94;;;13.51;100.00
28630;BME280;15817;42.130;24.762;2023-10-19T08:33:01;99989.13;;;13.50;99.44
28630;BME280;15817;42.130;24.762;2023-10-19T08:46:53;99989.25;;;13.96;99.46
28630;BME280;15817;42.130;24.762;2023-10-19T08:49:25;99999.69;;;14.10;99.01
28630;BME280;15817;42.130;24.762;2023-10-19T08:52:17;99994.09;;;14.24;97.62
28630;BME280;15817;42.130;24.762;2023-10-19T08:55:08;99989.44;;;14.33;97.09
28630;BME280;15817;42.130;24.762;2023-10-19T08:57:53;99991.22;;;14.34;96.94
28630;BME280;15817;42.130;24.762;2023-10-19T09:00:39;99983.94;;;14.42;96.92
28630;BME280;15817;42.130;24.762;2023-10-19T09:03:24;99987.41;;;14.49;96.10
28630;BME280;15817;42.130;24.762;2023-10-19T09:06:15;99963.31;;;14.49;94.97
28630;BME280;15817;42.130;24.762;2023-10-19T09:08:47;99957.88;;;14.54;94.96
28630;BME280;15817;42.130;24.762;2023-10-19T09:11:47;99963.81;;;14.68;94.88
28630;BME280;15817;42.130;24.762;2023-10-19T09:14:31;99960.25;;;14.67;94.28
28630;BME280;15817;42.130;24.762;2023-10-19T09:17:09;99969.09;;;14.71;93.77
28630;BME280;15817;42.130;24.762;2023-10-19T09:19:54;99951.25;;;14.71;94.20
28630;BME280;15817;42.130;24.762;2023-10-19T09:22:36;99957.00;;;14.93;93.80
28630;BME280;15817;42.130;24.762;2023-10-19T09:25:21;99945.28;;;14.99;91.46
28630;BME280;15817;42.130;24.762;2023-10-19T09:28:11;99943.25;;;15.10;90.73
28630;BME280;15817;42.130;24.762;2023-10-19T09:30:49;99941.25;;;15.18;90.19
28630;BME280;15817;42.130;24.762;2023-10-19T09:33:25;99921.69;;;15.14;89.89
28630;BME280;15817;42.130;24.762;2023-10-19T09:52:05;99896.59;;;15.55;89.68
28630;BME280;15817;42.130;24.762;2023-10-19T09:54:41;99903.66;;;15.58;89.70
28630;BME280;15817;42.130;24.762;2023-10-19T10:11:54;99893.31;;;15.43;91.01
28630;BME280;15817;42.130;24.762;2023-10-19T10:14:29;99896.94;;;15.40;90.96
28630;BME280;15817;42.130;24.762;2023-10-19T10:17:04;99871.41;;;15.26;90.89
28630;BME280;15817;42.130;24.762;2023-10-19T10:23:21;99880.25;;;15.29;89.63
28630;BME280;15817;42.130;24.762;2023-10-19T10:25:53;99878.56;;;15.25;89.46
28630;BME280;15817;42.130;24.762;2023-10-19T10:28:24;99886.53;;;15.28;90.90
28630;BME280;15817;42.130;24.762;2023-10-19T10:31:13;99883.16;;;15.20;91.99
28630;BME280;15817;42.130;24.762;2023-10-19T10:33:52;99881.09;;;15.31;90.59
28630;BME280;15817;42.130;24.762;2023-10-19T10:36:25;99877.06;;;15.49;89.63
28630;BME280;15817;42.130;24.762;2023-10-19T10:38:56;99866.72;;;15.69;88.02
28630;BME280;15817;42.130;24.762;2023-10-19T10:41:33;99862.75;;;15.84;88.26
28630;BME280;15817;42.130;24.762;2023-10-19T10:44:42;99869.31;;;16.05;87.03
28630;BME280;15817;42.130;24.762;2023-10-19T10:47:25;99865.69;;;16.07;84.88
28630;BME280;15817;42.130;24.762;2023-10-19T10:50:21;99861.13;;;16.11;84.15
28630;BME280;15817;42.130;24.762;2023-10-19T10:52:50;99848.53;;;16.13;84.64
28630;BME280;15817;42.130;24.762;2023-10-19T10:55:46;99843.13;;;16.14;84.67
28630;BME280;15817;42.130;24.762;2023-10-19T10:58:30;99840.81;;;16.02;85.68
28630;BME280;15817;42.130;24.762;2023-10-19T11:01:43;99843.28;;;16.08;84.97
28630;BME280;15817;42.130;24.762;2023-10-19T11:04:57;99827.72;;;16.21;85.08
28630;BME280;15817;42.130;24.762;2023-10-19T11:11:43;99818.97;;;16.44;85.09
28630;BME280;15817;42.130;24.762;2023-10-19T11:14:31;99820.66;;;16.48;83.20
28630;BME280;15817;42.130;24.762;2023-10-19T11:17:22;99814.84;;;16.32;83.87
28630;BME280;15817;42.130;24.762;2023-10-19T11:20:20;99798.66;;;16.35;84.41
28630;BME280;15817;42.130;24.762;2023-10-19T11:26:06;99792.00;;;16.48;84.54
28630;BME280;15817;42.130;24.762;2023-10-19T11:28:34;99784.88;;;16.47;84.82
28630;BME280;15817;42.130;24.762;2023-10-19T11:31:37;99778.66;;;16.45;84.39
28630;BME280;15817;42.130;24.762;2023-10-19T11:34:10;99785.00;;;16.43;83.66
28630;BME280;15817;42.130;24.762;2023-10-19T11:36:57;99761.41;;;16.24;84.25
28630;BME280;15817;42.130;24.762;2023-10-19T11:39:28;99767.41;;;16.33;84.77
28630;BME280;15817;42.130;24.762;2023-10-19T11:41:56;99764.81;;;16.29;84.35
28630;BME280;15817;42.130;24.762;2023-10-19T11:44:26;99747.84;;;16.29;85.05
28630;BME280;15817;42.130;24.762;2023-10-19T11:47:18;99744.97;;;16.35;84.82
28630;BME280;15817;42.130;24.762;2023-10-19T11:50:09;99735.88;;;16.39;84.95
28630;BME280;15817;42.130;24.762;2023-10-19T11:57:04;99735.63;;;16.48;83.80
28630;BME280;15817;42.130;24.762;2023-10-19T11:59:36;99751.69;;;16.50;84.31
28630;BME280;15817;42.130;24.762;2023-10-19T12:02:11;99745.56;;;16.45;84.99
28630;BME280;15817;42.130;24.762;2023-10-19T12:04:50;99745.66;;;16.42;84.75
28630;BME280;15817;42.130;24.762;2023-10-19T12:07:34;99728.91;;;16.34;84.60
28630;BME280;15817;42.130;24.762;2023-10-19T12:10:17;99728.03;;;16.33;84.80
28630;BME280;15817;42.130;24.762;2023-10-19T12:13:17;99730.69;;;16.35;84.17
28630;BME280;15817;42.130;24.762;2023-10-19T12:16:02;99722.66;;;16.33;85.71
28630;BME280;15817;42.130;24.762;2023-10-19T12:18:30;99711.81;;;16.38;85.70
28630;BME280;15817;42.130;24.762;2023-10-19T12:21:02;99710.91;;;16.37;85.59
28630;BME280;15817;42.130;24.762;2023-10-19T12:23:54;99720.53;;;16.44;85.64
28630;BME280;15817;42.130;24.762;2023-10-19T12:26:41;99721.66;;;16.37;84.88
28630;BME280;15817;42.130;24.762;2023-10-19T12:32:19;99703.94;;;16.32;84.44
28630;BME280;15817;42.130;24.762;2023-10-19T12:34:53;99704.66;;;16.37;84.55
28630;BME280;15817;42.130;24.762;2023-10-19T12:37:32;99694.84;;;16.36;84.93
28630;BME280;15817;42.130;24.762;2023-10-19T12:40:14;99685.97;;;16.34;84.71
28630;BME280;15817;42.130;24.762;2023-10-19T12:43:12;99677.09;;;16.32;84.50
28630;BME280;15817;42.130;24.762;2023-10-19T12:46:03;99679.88;;;16.28;84.86
28630;BME280;15817;42.130;24.762;2023-10-19T12:48:40;99667.19;;;16.34;83.93
28630;BME280;15817;42.130;24.762;2023-10-19T12:51:08;99682.00;;;16.45;83.29
28630;BME280;15817;42.130;24.762;2023-10-19T12:53:46;99654.59;;;16.36;83.91
28630;BME280;15817;42.130;24.762;2023-10-19T12:56:28;99659.03;;;16.37;83.20
28630;BME280;15817;42.130;24.762;2023-10-19T12:59:09;99664.19;;;16.43;82.57
28630;BME280;15817;42.130;24.762;2023-10-19T13:02:01;99654.44;;;16.40;82.85
28630;BME280;15817;42.130;24.762;2023-10-19T13:04:55;99653.47;;;16.43;83.30
28630;BME280;15817;42.130;24.762;2023-10-19T13:07:30;99639.25;;;16.39;83.43
28630;BME280;15817;42.130;24.762;2023-10-19T13:10:30;99648.88;;;16.46;83.00
28630;BME280;15817;42.130;24.762;2023-10-19T13:13:05;99644.56;;;16.41;83.33
28630;BME280;15817;42.130;24.762;2023-10-19T13:15:38;99633.97;;;16.38;84.15
28630;BME280;15817;42.130;24.762;2023-10-19T13:18:26;99638.22;;;16.43;83.25
28630;BME280;15817;42.130;24.762;2023-10-19T13:21:48;99638.03;;;16.49;82.50
28630;BME280;15817;42.130;24.762;2023-10-19T13:25:45;99635.19;;;16.54;83.17
28630;BME280;15817;42.130;24.762;2023-10-19T13:32:08;99626.41;;;16.49;83.44
28630;BME280;15817;42.130;24.762;2023-10-19T13:34:39;99607.69;;;16.47;84.74
28630;BME280;15817;42.130;24.762;2023-10-19T13:37:38;99613.00;;;16.49;84.60
28630;BME280;15817;42.130;24.762;2023-10-19T13:40:07;99617.25;;;16.54;84.72
28630;BME280;15817;42.130;24.762;2023-10-19T13:42:40;99608.50;;;16.49;84.39
28630;BME280;15817;42.130;24.762;2023-10-19T13:45:27;99611.25;;;16.48;83.51
28630;BME280;15817;42.130;24.762;2023-10-19T13:48:10;99613.88;;;16.49;84.05
28630;BME280;15817;42.130;24.762;2023-10-19T13:50:45;99612.13;;;16.48;84.07
28630;BME280;15817;42.130;24.762;2023-10-19T13:54:05;99601.44;;;16.47;85.52
28630;BME280;15817;42.130;24.762;2023-10-19T13:56:56;99598.50;;;16.53;84.24
28630;BME280;15817;42.130;24.762;2023-10-19T13:59:50;99584.41;;;16.48;85.23
28630;BME280;15817;42.130;24.762;2023-10-19T14:02:38;99587.03;;;16.49;84.88
28630;BME280;15817;42.130;24.762;2023-10-19T14:05:18;99581.72;;;16.48;85.19
28630;BME280;15817;42.130;24.762;2023-10-19T14:07:55;99580.69;;;16.50;84.77
28630;BME280;15817;42.130;24.762;2023-10-19T14:10:23;99576.22;;;16.51;85.23
28630;BME280;15817;42.130;24.762;2023-10-19T14:12:53;99574.53;;;16.48;85.38
28630;BME280;15817;42.130;24.762;2023-10-19T14:18:24;99577.25;;;16.47;85.45
28630;BME280;15817;42.130;24.762;2023-10-19T14:20:55;99583.38;;;16.50;84.90
28630;BME280;15817;42.130;24.762;2023-10-19T14:23:33;99583.47;;;16.49;85.09
28630;BME280;15817;42.130;24.762;2023-10-19T14:26:15;99574.69;;;16.44;84.93
28630;BME280;15817;42.130;24.762;2023-10-19T14:28:47;99582.63;;;16.47;85.81
28630;BME280;15817;42.130;24.762;2023-10-19T14:31:27;99560.47;;;16.40;85.89
28630;BME280;15817;42.130;24.762;2023-10-19T14:34:04;99568.28;;;16.48;85.72
28630;BME280;15817;42.130;24.762;2023-10-19T14:36:33;99568.28;;;16.48;85.10
28630;BME280;15817;42.130;24.762;2023-10-19T14:39:31;99562.09;;;16.46;86.11
28630;BME280;15817;42.130;24.762;2023-10-19T14:42:19;99540.75;;;16.41;86.88
28630;BME280;15817;42.130;24.762;2023-10-19T14:45:27;99537.19;;;16.41;85.99
28630;BME280;15817;42.130;24.762;2023-10-19T14:48:16;99533.75;;;16.37;86.87
28630;BME280;15817;42.130;24.762;2023-10-19T14:51:06;99533.53;;;16.43;85.65
28630;BME280;15817;42.130;24.762;2023-10-19T14:53:45;99522.84;;;16.42;86.07
28630;BME280;15817;42.130;24.762;2023-10-19T14:56:26;99534.41;;;16.44;86.83
28630;BME280;15817;42.130;24.762;2023-10-19T15:02:23;99550.63;;;16.41;88.27
28630;BME280;15817;42.130;24.762;2023-10-19T15:05:39;99536.66;;;16.31;88.58
28630;BME280;15817;42.130;24.762;2023-10-19T15:08:48;99542.09;;;16.28;88.02
28630;BME280;15817;42.130;24.762;2023-10-19T15:15:46;99535.13;;;16.24;90.30
28630;BME280;15817;42.130;24.762;2023-10-19T15:27:45;99542.38;;;16.20;87.93
28630;BME280;15817;42.130;24.762;2023-10-19T15:49:47;99540.69;;;15.91;90.91
28630;BME280;15817;42.130;24.762;2023-10-19T15:52:50;99542.38;;;15.94;91.41
28630;BME280;15817;42.130;24.762;2023-10-19T15:55:54;99537.22;;;15.88;92.05
28630;BME280;15817;42.130;24.762;2023-10-19T15:58:55;99550.63;;;15.88;92.36
28630;BME280;15817;42.130;24.762;2023-10-19T16:08:42;99542.84;;;15.80;93.49